TAF and METAR

Could not understand the following METAR

EHMG 242355Z AUTO 15015KT 9999 VV/// //////CB 24/17 Q1018 W///H///
No TAF available for L9-Ff-1 Sea